Time;durP1;ratioP1;P1;durP2;ratioP2;P2;SDS_P1;SDS_P2;PMS_P1;PMS_P2;Temp;Humidity;BMP_temperature;BMP_pressure;BME280_temperature;BME280_humidity;BME280_pressure;Samples;Min_cycle;Max_cycle;Signal;HPM_P1;HPM_P2
2023/06/22 03:57:17;;;;;;;2.80;2.70;;;17.60;99.90;;;;;;5407441;23;20230;-72
2023/06/22 03:59:43;;;;;;;2.40;2.40;;;17.80;99.90;;;;;;4976166;28;20211;-71
2023/06/22 04:02:10;;;;;;;3.20;3.00;;;17.90;99.90;;;;;;4975971;28;20543;-72
2023/06/22 04:04:38;;;;;;;2.63;2.53;;;18.10;99.90;;;;;;4976191;28;20203;-72
2023/06/22 04:07:05;;;;;;;6.00;4.47;;;18.30;99.90;;;;;;4976358;28;20238;-70
2023/06/22 04:09:32;;;;;;;4.38;4.07;;;18.40;99.90;;;;;;4976218;28;20203;-71
2023/06/22 04:11:59;;;;;;;4.65;4.05;;;18.60;99.90;;;;;;4976063;28;20210;-71
2023/06/22 04:14:27;;;;;;;4.47;4.07;;;18.80;99.90;;;;;;4975942;28;20535;-71
2023/06/22 04:16:53;;;;;;;4.47;4.18;;;19.10;99.90;;;;;;4976402;28;20231;-72
2023/06/22 04:19:20;;;;;;;4.28;3.97;;;19.40;99.90;;;;;;4975625;28;20207;-72
2023/06/22 04:21:48;;;;;;;4.80;4.40;;;19.70;99.90;;;;;;4975830;28;20206;-71
2023/06/22 04:24:15;;;;;;;4.25;3.90;;;19.90;99.90;;;;;;4975712;28;20206;-71
2023/06/22 04:26:45;;;;;;;4.20;3.90;;;20.30;99.90;;;;;;4976530;28;20219;-71
2023/06/22 04:29:12;;;;;;;3.60;3.40;;;20.60;99.90;;;;;;4975957;28;20199;-71
2023/06/22 04:31:40;;;;;;;4.20;3.72;;;21.10;99.90;;;;;;4975743;28;20210;-71
2023/06/22 04:34:08;;;;;;;4.25;3.50;;;21.50;99.90;;;;;;4975717;28;20574;-71
2023/06/22 04:36:38;;;;;;;3.67;3.25;;;21.90;99.90;;;;;;4975459;28;20683;-72
2023/06/22 04:39:06;;;;;;;3.92;3.38;;;22.40;99.90;;;;;;4975395;28;20678;-71
2023/06/22 04:41:41;;;;;;;2.47;2.38;;;22.70;99.90;;;;;;4975579;28;20254;-71
2023/06/22 04:44:09;;;;;;;2.72;2.53;;;23.10;99.90;;;;;;4975353;28;20190;-71
2023/06/22 04:46:37;;;;;;;2.78;2.58;;;23.50;99.90;;;;;;4975604;28;20226;-72
2023/06/22 04:49:09;;;;;;;2.72;2.53;;;23.90;99.90;;;;;;4975740;28;20654;-73
2023/06/22 04:51:39;;;;;;;2.78;2.53;;;24.20;99.90;;;;;;4993633;28;20191;-72
2023/06/22 04:54:06;;;;;;;3.60;2.42;;;24.50;99.90;;;;;;4996930;28;20235;-71
2023/06/22 04:56:32;;;;;;;3.20;2.60;;;24.70;99.90;;;;;;4989560;28;20290;-71
2023/06/22 04:58:59;;;;;;;2.40;2.30;;;25.10;99.90;;;;;;4975780;28;20214;-72
2023/06/22 05:01:26;;;;;;;3.10;2.65;;;25.60;99.90;;;;;;4975612;28;20207;-72
2023/06/22 10:48:28;;;;;;;6.22;4.80;;;31.90;99.90;;;;;;5364148;23;20238;-70
2023/06/22 10:50:55;;;;;;;5.28;4.03;;;31.90;99.90;;;;;;4977967;28;20214;-69
2023/06/22 10:53:22;;;;;;;4.55;4.10;;;31.90;99.90;;;;;;4978681;28;20704;-69
2023/06/22 10:55:49;;;;;;;5.53;4.30;;;31.70;99.90;;;;;;4979082;28;20690;-70
2023/06/22 10:58:16;;;;;;;4.35;4.05;;;31.50;99.90;;;;;;4981662;28;20223;-70
2023/06/22 11:00:43;;;;;;;5.18;4.68;;;31.40;99.90;;;;;;4982590;28;20639;-70
2023/06/22 11:03:10;;;;;;;3.88;3.67;;;31.10;99.90;;;;;;4981484;28;20203;-70
2023/06/22 11:05:39;;;;;;;4.38;4.07;;;30.90;99.90;;;;;;4979876;28;20213;-70
2023/06/22 11:08:06;;;;;;;4.70;4.30;;;30.90;99.90;;;;;;4979722;28;20245;-69
2023/06/22 11:10:34;;;;;;;5.78;4.28;;;31.10;99.90;;;;;;4980717;28;20248;-69
2023/06/22 11:13:02;;;;;;;7.70;3.95;;;31.20;99.90;;;;;;4980058;28;20209;-69
2023/06/22 11:15:29;;;;;;;5.30;3.97;;;31.50;99.90;;;;;;4980070;28;20237;-69
2023/06/22 11:17:57;;;;;;;6.63;3.97;;;31.70;99.90;;;;;;4980467;28;20706;-70
2023/06/22 11:20:23;;;;;;;4.60;4.20;;;31.90;99.90;;;;;;4977051;28;20214;-70
2023/06/22 11:22:51;;;;;;;8.63;5.15;;;32.00;99.90;;;;;;4977059;28;20207;-70
2023/06/22 11:25:18;;;;;;;10.60;5.03;;;31.90;99.90;;;;;;4976899;28;20210;-70
2023/06/22 11:27:46;;;;;;;4.95;4.50;;;31.70;99.90;;;;;;4976539;28;20234;-70
2023/06/22 11:30:13;;;;;;;5.35;4.65;;;31.80;99.90;;;;;;4977140;28;20209;-70
2023/06/22 11:32:40;;;;;;;7.75;4.70;;;31.80;99.90;;;;;;4976894;28;20302;-70
2023/06/22 11:35:07;;;;;;;4.88;4.38;;;31.70;99.90;;;;;;4976535;28;20678;-70
2023/06/22 11:37:33;;;;;;;4.72;4.20;;;31.80;99.90;;;;;;4976612;28;20234;-71
2023/06/22 11:40:05;;;;;;;5.28;4.40;;;31.80;99.90;;;;;;4976810;28;20210;-70
2023/06/22 11:42:31;;;;;;;5.65;4.40;;;31.70;99.90;;;;;;4976704;28;20191;-70
2023/06/22 11:44:58;;;;;;;5.38;4.90;;;31.50;99.90;;;;;;4976757;28;20214;-70
2023/06/22 11:47:25;;;;;;;6.15;5.47;;;31.40;99.90;;;;;;4976499;28;20222;-71
2023/06/22 11:49:51;;;;;;;5.40;4.78;;;31.30;99.90;;;;;;4976363;28;20215;-70
2023/06/22 11:52:19;;;;;;;5.75;4.70;;;31.10;99.90;;;;;;4976383;28;20206;-70
2023/06/22 11:54:46;;;;;;;7.88;5.25;;;30.90;99.90;;;;;;4976285;28;20230;-70
2023/06/22 11:57:14;;;;;;;7.22;5.07;;;30.60;99.90;;;;;;4975820;28;20601;-70
2023/06/22 11:59:41;;;;;;;7.20;5.22;;;30.40;99.90;;;;;;4976309;28;20207;-71
2023/06/22 12:02:09;;;;;;;6.00;4.55;;;30.20;99.90;;;;;;4976042;28;20214;-70
2023/06/22 12:04:36;;;;;;;5.60;5.05;;;30.00;99.90;;;;;;4976244;28;20199;-70
2023/06/22 12:07:03;;;;;;;7.38;4.60;;;29.90;99.90;;;;;;4976203;28;20223;-71
2023/06/22 12:09:29;;;;;;;10.52;4.85;;;29.70;99.90;;;;;;4975793;28;20682;-69
2023/06/22 12:11:56;;;;;;;9.02;5.20;;;29.60;99.90;;;;;;4976102;28;20214;-69
2023/06/22 12:14:24;;;;;;;8.75;5.22;;;29.60;99.90;;;;;;4975573;28;20210;-70
2023/06/22 12:16:51;;;;;;;8.20;5.40;;;29.50;99.90;;;;;;4975585;28;20219;-70
2023/06/22 12:19:18;;;;;;;11.88;5.55;;;29.40;99.90;;;;;;4976027;28;20250;-70
2023/06/22 12:21:45;;;;;;;8.18;5.50;;;29.30;99.90;;;;;;4975956;28;20210;-70
2023/06/22 12:24:12;;;;;;;7.32;5.40;;;29.30;99.90;;;;;;4975858;28;20202;-70
2023/06/22 12:26:39;;;;;;;5.65;5.25;;;29.40;99.90;;;;;;4976403;28;20222;-69
2023/06/22 12:29:05;;;;;;;5.13;4.65;;;29.60;99.90;;;;;;4975859;28;20223;-69
2023/06/22 12:31:34;;;;;;;6.35;4.78;;;29.80;99.90;;;;;;4975933;28;20211;-69
2023/06/22 12:34:00;;;;;;;6.68;6.00;;;30.10;99.90;;;;;;4975455;28;20203;-68
2023/06/22 12:36:27;;;;;;;7.88;4.82;;;30.30;99.90;;;;;;4975611;28;20218;-68
2023/06/22 12:38:54;;;;;;;6.50;5.03;;;30.50;99.90;;;;;;4975523;28;20306;-69
2023/06/22 12:41:21;;;;;;;5.25;4.75;;;30.70;99.90;;;;;;4975596;28;20208;-69
2023/06/22 12:43:47;;;;;;;4.10;3.88;;;30.80;99.90;;;;;;4975623;28;20202;-69
2023/06/22 12:46:14;;;;;;;6.20;4.20;;;31.10;99.90;;;;;;4975167;28;20568;-69
2023/06/22 12:48:42;;;;;;;5.25;4.10;;;31.40;99.90;;;;;;4975415;28;20258;-68
2023/06/22 12:51:10;;;;;;;3.70;3.40;;;31.60;99.90;;;;;;4975147;28;20250;-69
2023/06/22 12:53:37;;;;;;;3.85;3.55;;;31.80;99.90;;;;;;4975433;28;20222;-68
2023/06/22 12:56:04;;;;;;;8.52;5.35;;;31.70;99.90;;;;;;4997879;23;20382;-71
2023/06/22 12:58:30;;;;;;;9.32;5.15;;;31.40;99.90;;;;;;4975337;28;20213;-70
2023/06/22 13:00:58;;;;;;;7.50;5.60;;;31.20;99.90;;;;;;4975311;28;20207;-70
2023/06/22 13:03:26;;;;;;;5.50;4.45;;;30.90;99.90;;;;;;4976777;28;20213;-71
2023/06/22 13:05:55;;;;;;;7.28;4.05;;;30.90;99.90;;;;;;4978529;28;20258;-70
2023/06/22 13:08:22;;;;;;;5.45;4.40;;;30.80;99.90;;;;;;4976666;28;20202;-72
2023/06/22 13:10:48;;;;;;;6.43;4.30;;;30.80;99.90;;;;;;4977941;28;20213;-71
2023/06/22 13:13:15;;;;;;;5.53;3.42;;;31.00;99.90;;;;;;4978599;28;20202;-71
2023/06/22 13:15:42;;;;;;;10.77;4.82;;;31.20;99.90;;;;;;4977439;28;20203;-71
2023/06/22 13:18:08;;;;;;;4.57;4.18;;;31.20;99.90;;;;;;4978839;28;20622;-71
2023/06/22 13:20:35;;;;;;;6.05;4.07;;;31.30;99.90;;;;;;4976861;28;20211;-71
2023/06/22 13:23:03;;;;;;;11.85;4.03;;;31.30;99.90;;;;;;4976391;28;20222;-72
2023/06/22 13:25:30;;;;;;;7.55;3.63;;;31.20;99.90;;;;;;4975788;28;20666;-70
2023/06/22 13:27:57;;;;;;;10.02;4.03;;;31.10;99.90;;;;;;4977385;28;20223;-71
2023/06/22 13:30:24;;;;;;;3.70;3.38;;;30.90;99.90;;;;;;4980165;28;20203;-71
2023/06/22 13:32:50;;;;;;;4.30;3.40;;;30.80;99.90;;;;;;4974691;28;20199;-71
2023/06/22 13:35:17;;;;;;;3.83;2.90;;;30.80;99.90;;;;;;4975976;28;20209;-70
2023/06/22 13:37:44;;;;;;;2.55;2.42;;;30.80;99.90;;;;;;4976124;28;20226;-71
2023/06/22 13:40:12;;;;;;;3.10;2.70;;;30.70;99.90;;;;;;4975205;28;20207;-72
2023/06/22 13:42:39;;;;;;;4.25;3.47;;;30.70;99.90;;;;;;4974964;28;20214;-70
2023/06/22 13:45:07;;;;;;;4.45;3.30;;;30.60;99.90;;;;;;4975258;28;20207;-70
2023/06/22 13:47:34;;;;;;;3.63;2.67;;;30.70;99.90;;;;;;4977140;28;20219;-70
2023/06/22 13:50:01;;;;;;;6.38;3.08;;;30.80;99.90;;;;;;4975666;28;20666;-70
2023/06/22 13:52:27;;;;;;;5.97;3.03;;;30.80;99.90;;;;;;4975118;28;20203;-70
2023/06/22 13:54:54;;;;;;;6.60;3.25;;;30.80;99.90;;;;;;4976887;28;20210;-72
2023/06/22 13:57:22;;;;;;;5.50;3.13;;;30.70;99.90;;;;;;4974217;28;20249;-72
2023/06/22 13:59:49;;;;;;;4.03;2.97;;;30.60;99.90;;;;;;4974843;28;20206;-71
2023/06/22 14:02:15;;;;;;;3.60;2.95;;;30.60;99.90;;;;;;4975173;28;20261;-70
2023/06/22 14:04:42;;;;;;;4.72;3.38;;;30.70;99.90;;;;;;4974483;28;20203;-71
2023/06/22 14:07:09;;;;;;;6.93;2.92;;;30.70;99.90;;;;;;4974422;28;20234;-72
2023/06/22 14:09:36;;;;;;;10.20;3.20;;;30.50;99.90;;;;;;4974359;28;20214;-72
2023/06/22 14:12:06;;;;;;;2.78;2.58;;;30.40;99.90;;;;;;4974179;28;20570;-70
2023/06/22 14:14:34;;;;;;;4.70;3.28;;;30.30;99.90;;;;;;4974509;28;20210;-70
2023/06/22 14:17:01;;;;;;;8.13;3.47;;;30.20;99.90;;;;;;4974259;28;20219;-70
2023/06/22 14:19:28;;;;;;;;;;;30.10;99.90;;;;;;4974869;28;20058;-73
2023/06/22 14:21:54;;;;;;;;;;;29.40;99.90;;;;;;4974614;28;20421;-73
2023/06/22 14:24:21;;;;;;;;;;;28.30;99.90;;;;;;4974530;28;20396;-74
2023/06/22 14:26:47;;;;;;;;;;;27.60;99.90;;;;;;4974547;28;19930;-74
2023/06/22 14:29:14;;;;;;;2.20;2.10;;;27.30;99.90;;;;;;4973185;28;20412;-73
2023/06/22 14:31:46;;;;;;;1.90;1.80;;;26.90;99.90;;;;;;4974329;28;20191;-73
2023/06/22 14:34:13;;;;;;;1.90;1.80;;;26.80;99.90;;;;;;4974228;28;20191;-73
2023/06/22 14:36:40;;;;;;;1.45;1.45;;;26.70;99.90;;;;;;4973809;28;20691;-73
2023/06/22 14:39:06;;;;;;;2.05;1.77;;;26.70;99.90;;;;;;4976162;28;20210;-73
2023/06/22 14:41:33;;;;;;;1.80;1.70;;;26.50;99.90;;;;;;4977461;28;20233;-73
2023/06/22 14:44:00;;;;;;;1.58;1.58;;;26.60;99.90;;;;;;4977477;28;20785;-73
2023/06/22 14:46:28;;;;;;;1.95;1.77;;;26.70;99.90;;;;;;4977264;28;20733;-73
2023/06/22 14:48:56;;;;;;;2.63;1.70;;;26.80;99.90;;;;;;4977462;28;20199;-73
2023/06/22 14:51:23;;;;;;;1.20;1.20;;;26.90;99.90;;;;;;4977504;28;20666;-73
2023/06/22 14:53:50;;;;;;;1.30;1.20;;;26.90;99.90;;;;;;4977695;28;20203;-73
2023/06/22 14:56:16;;;;;;;1.98;1.13;;;26.80;99.90;;;;;;4977006;28;20736;-73
2023/06/22 14:58:45;;;;;;;1.17;1.17;;;26.70;99.90;;;;;;4977500;28;20215;-73
2023/06/22 15:01:12;;;;;;;1.40;1.40;;;26.50;99.90;;;;;;4977217;28;20745;-73
2023/06/22 15:03:39;;;;;;;1.73;1.40;;;26.30;99.90;;;;;;4977466;28;20577;-73
2023/06/22 15:06:08;;;;;;;1.95;1.40;;;26.10;99.90;;;;;;4977349;28;20223;-73
2023/06/22 15:08:35;;;;;;;1.60;1.55;;;26.00;99.90;;;;;;4977012;28;20612;-73
2023/06/22 15:11:02;;;;;;;1.40;1.30;;;25.80;99.90;;;;;;4977386;28;20203;-73
2023/06/22 15:13:29;;;;;;;1.55;1.45;;;25.60;99.90;;;;;;4977364;28;20249;-73
2023/06/22 15:15:56;;;;;;;1.63;1.42;;;25.40;99.90;;;;;;4977243;28;20265;-74
2023/06/22 15:18:23;;;;;;;1.63;1.30;;;25.20;99.90;;;;;;4977809;28;20226;-74
2023/06/22 15:20:50;;;;;;;1.95;1.77;;;25.00;99.90;;;;;;4977104;28;20203;-73
2023/06/22 15:23:18;;;;;;;2.42;2.00;;;24.80;99.90;;;;;;4977186;28;20211;-70
2023/06/22 15:25:45;;;;;;;2.05;1.95;;;24.60;99.90;;;;;;4976686;28;20203;-69
2023/06/22 15:28:12;;;;;;;2.00;1.88;;;24.50;99.90;;;;;;4977044;28;20230;-69
2023/06/22 15:30:39;;;;;;;1.98;1.85;;;24.40;99.90;;;;;;4976845;28;20697;-71
2023/06/22 15:33:06;;;;;;;1.90;1.80;;;24.30;99.90;;;;;;4977171;28;20298;-71
2023/06/22 15:35:33;;;;;;;2.67;2.03;;;24.20;99.90;;;;;;4976951;28;20206;-71
2023/06/22 15:38:01;;;;;;;2.17;2.00;;;24.20;99.90;;;;;;4977011;28;20226;-70
2023/06/22 15:40:29;;;;;;;3.67;2.15;;;24.20;99.90;;;;;;4976859;28;20203;-69
2023/06/22 15:42:56;;;;;;;2.75;2.55;;;24.30;99.90;;;;;;4976766;28;20289;-69
2023/06/22 15:45:23;;;;;;;2.42;2.22;;;24.50;99.90;;;;;;4976804;28;20206;-69
2023/06/22 15:47:49;;;;;;;2.25;2.08;;;24.90;99.90;;;;;;4976745;28;20223;-69
2023/06/22 15:50:16;;;;;;;2.38;2.28;;;25.10;99.90;;;;;;4976590;28;20583;-69
2023/06/22 15:52:47;;;;;;;2.42;2.25;;;25.50;99.90;;;;;;4976653;28;20231;-69
2023/06/22 15:55:14;;;;;;;3.42;2.10;;;25.70;99.90;;;;;;4976378;28;20198;-68
2023/06/22 15:57:46;;;;;;;2.60;2.40;;;25.70;99.90;;;;;;4976166;28;20226;-69
2023/06/22 16:00:14;;;;;;;1.88;1.77;;;25.70;99.90;;;;;;4976616;28;20183;-69
2023/06/22 16:02:41;;;;;;;2.15;2.05;;;25.70;99.90;;;;;;4976525;28;20234;-69
2023/06/22 16:05:09;;;;;;;2.53;2.33;;;25.60;99.90;;;;;;4976179;28;20199;-69
2023/06/22 16:07:36;;;;;;;2.47;2.35;;;25.50;99.90;;;;;;4976202;28;20310;-69
2023/06/22 16:10:02;;;;;;;2.60;2.40;;;25.40;99.90;;;;;;4977103;28;20210;-70
2023/06/22 16:12:29;;;;;;;3.08;2.45;;;25.40;99.90;;;;;;4976357;28;20269;-71
2023/06/22 16:14:57;;;;;;;2.08;1.98;;;25.30;99.90;;;;;;4976076;28;20205;-71
2023/06/22 16:17:26;;;;;;;3.08;2.50;;;25.20;99.90;;;;;;4976122;28;20223;-70
2023/06/22 16:19:54;;;;;;;2.28;2.17;;;25.10;99.90;;;;;;4976181;28;20203;-71
2023/06/22 16:22:21;;;;;;;4.00;2.47;;;25.00;99.90;;;;;;4976247;28;20199;-71
2023/06/22 16:24:48;;;;;;;2.72;2.33;;;24.90;99.90;;;;;;4975967;28;20210;-71
2023/06/22 16:27:14;;;;;;;2.95;2.75;;;24.80;99.90;;;;;;4976994;28;20223;-71
2023/06/22 16:29:41;;;;;;;2.70;2.50;;;24.80;99.90;;;;;;4983211;28;20207;-71
2023/06/22 16:32:10;;;;;;;2.72;2.53;;;24.70;99.90;;;;;;4976109;28;20203;-71
2023/06/22 16:34:36;;;;;;;2.83;2.72;;;24.70;99.90;;;;;;4975764;28;20717;-71
2023/06/22 16:37:03;;;;;;;2.75;2.55;;;24.60;99.90;;;;;;4975848;28;20230;-70
2023/06/22 16:39:30;;;;;;;2.58;2.42;;;24.60;99.90;;;;;;4976103;28;20203;-70
2023/06/22 16:41:56;;;;;;;2.28;2.15;;;24.70;99.90;;;;;;4975478;28;20689;-69
2023/06/22 16:44:23;;;;;;;2.58;2.38;;;24.60;99.90;;;;;;4975917;28;20636;-69
2023/06/22 16:46:50;;;;;;;2.50;2.30;;;24.60;99.90;;;;;;4975948;28;20226;-69
2023/06/22 16:49:19;;;;;;;1.98;1.88;;;24.70;99.90;;;;;;4976141;28;20207;-69
2023/06/22 16:51:45;;;;;;;2.42;2.33;;;24.70;99.90;;;;;;4975823;28;20207;-69
2023/06/22 16:54:13;;;;;;;2.60;2.40;;;24.50;99.90;;;;;;4975630;28;20207;-70
2023/06/22 16:56:40;;;;;;;2.72;2.60;;;24.50;99.90;;;;;;4975267;28;20604;-70
2023/06/22 16:59:07;;;;;;;2.17;2.08;;;24.30;99.90;;;;;;4975233;28;20238;-70
2023/06/22 17:01:35;;;;;;;2.60;2.40;;;24.20;99.90;;;;;;4974902;28;20202;-71
2023/06/22 17:04:05;;;;;;;3.58;2.75;;;24.10;99.90;;;;;;4975405;28;20199;-71
2023/06/22 17:06:33;;;;;;;4.63;2.90;;;24.00;99.90;;;;;;4975097;28;20227;-71
2023/06/22 17:09:02;;;;;;;2.63;2.38;;;23.90;99.90;;;;;;4974866;28;20674;-71
2023/06/22 17:11:30;;;;;;;2.58;2.38;;;23.80;99.90;;;;;;4974959;28;20555;-71
2023/06/22 17:13:58;;;;;;;2.38;2.28;;;23.70;99.90;;;;;;4975509;28;20198;-71
2023/06/22 17:16:26;;;;;;;3.10;2.38;;;23.70;99.90;;;;;;4975085;28;20565;-71
2023/06/22 17:18:54;;;;;;;3.13;2.90;;;23.60;99.90;;;;;;4974906;28;20222;-72
2023/06/22 17:21:24;;;;;;;2.72;2.53;;;23.50;99.90;;;;;;4975308;28;20234;-71
2023/06/22 17:23:53;;;;;;;3.92;2.83;;;23.30;99.90;;;;;;4975095;28;20213;-72
2023/06/22 17:26:21;;;;;;;3.83;3.38;;;23.20;99.90;;;;;;4975297;28;20219;-72
2023/06/22 17:28:49;;;;;;;4.72;2.88;;;22.90;99.90;;;;;;4975289;28;20214;-70
2023/06/22 17:31:16;;;;;;;4.15;2.95;;;22.70;99.90;;;;;;4975347;28;20206;-71
2023/06/22 17:33:43;;;;;;;4.93;3.30;;;22.30;99.90;;;;;;4975692;28;20198;-70
2023/06/22 17:36:14;;;;;;;3.53;3.15;;;22.00;99.90;;;;;;4980559;28;20254;-71
2023/06/22 17:38:41;;;;;;;3.28;2.97;;;21.80;99.90;;;;;;4979124;28;20219;-67
2023/06/22 17:41:10;;;;;;;3.70;3.40;;;21.40;99.90;;;;;;4978903;28;20217;-68
2023/06/22 17:43:47;;;;;;;4.95;3.20;;;21.20;99.90;;;;;;4974783;28;20210;-68
2023/06/22 17:46:15;;;;;;;3.30;3.10;;;21.00;99.90;;;;;;4974831;28;20254;-69
2023/06/22 17:48:44;;;;;;;3.25;3.00;;;20.80;99.90;;;;;;4974945;28;20199;-68
2023/06/22 17:51:13;;;;;;;3.13;2.92;;;20.70;99.90;;;;;;4975100;28;20261;-68
2023/06/22 17:53:40;;;;;;;3.38;3.08;;;20.70;99.90;;;;;;4975001;28;20190;-68
2023/06/22 17:56:07;;;;;;;2.85;2.67;;;20.60;99.90;;;;;;4974896;28;20238;-68
2023/06/22 17:58:35;;;;;;;2.80;2.60;;;20.50;99.90;;;;;;4976866;28;20206;-67
2023/06/22 18:01:01;;;;;;;2.40;2.30;;;20.40;99.90;;;;;;4976319;28;20670;-67
2023/06/22 18:03:28;;;;;;;2.70;2.60;;;20.40;99.90;;;;;;4974949;28;20218;-68
2023/06/22 18:05:55;;;;;;;2.30;2.20;;;20.40;99.90;;;;;;4974109;28;20663;-68
2023/06/22 18:08:27;;;;;;;2.65;2.30;;;20.30;99.90;;;;;;4974430;28;20210;-68
2023/06/22 18:10:57;;;;;;;2.40;2.30;;;20.20;99.90;;;;;;4974221;28;20658;-67
2023/06/22 18:13:26;;;;;;;2.67;2.47;;;20.10;99.90;;;;;;4975486;28;20237;-68
2023/06/22 18:15:54;;;;;;;2.92;2.50;;;20.10;99.90;;;;;;4978404;28;20262;-69
2023/06/22 18:18:24;;;;;;;4.35;2.85;;;20.00;99.90;;;;;;4977965;28;20698;-68
2023/06/22 18:20:52;;;;;;;3.75;3.05;;;19.90;99.90;;;;;;4978386;28;20183;-68
2023/06/22 18:23:20;;;;;;;2.90;2.17;;;19.80;99.90;;;;;;4978364;28;20207;-67
2023/06/22 18:25:48;;;;;;;3.60;2.80;;;19.70;99.90;;;;;;4978282;28;20218;-67
2023/06/22 18:28:16;;;;;;;2.38;2.17;;;19.60;99.90;;;;;;4977814;28;20567;-67
2023/06/22 18:30:44;;;;;;;2.95;2.58;;;19.70;99.90;;;;;;4978214;28;20205;-68
2023/06/22 18:33:12;;;;;;;5.15;2.58;;;19.60;99.90;;;;;;4977748;28;20199;-67
2023/06/22 18:35:39;;;;;;;2.85;2.40;;;19.50;99.90;;;;;;4977995;28;20673;-68
2023/06/22 18:38:08;;;;;;;3.80;2.53;;;19.50;99.90;;;;;;4977985;28;20226;-68
2023/06/22 18:40:35;;;;;;;2.30;2.20;;;19.50;99.90;;;;;;4978085;28;20257;-68
2023/06/22 18:43:02;;;;;;;2.10;2.00;;;19.60;99.90;;;;;;4978155;28;20217;-68
2023/06/22 18:45:32;;;;;;;2.20;2.08;;;19.60;99.90;;;;;;4978006;28;20207;-68
2023/06/22 18:48:03;;;;;;;2.55;2.33;;;19.60;99.90;;;;;;4977511;28;20724;-67
2023/06/22 18:50:41;;;;;;;2.67;2.47;;;19.60;99.90;;;;;;4977703;28;20673;-67
2023/06/22 18:53:15;;;;;;;2.55;2.38;;;19.50;99.90;;;;;;4978238;28;20196;-68
2023/06/22 18:55:43;;;;;;;3.58;2.47;;;19.50;99.90;;;;;;4977812;28;20557;-67
2023/06/22 18:58:18;;;;;;;3.25;2.47;;;19.40;99.90;;;;;;4977396;28;20278;-68
2023/06/22 19:00:45;;;;;;;2.80;2.58;;;19.40;99.90;;;;;;4977926;28;20198;-69
2023/06/22 19:03:31;;;;;;;2.80;2.60;;;19.30;99.90;;;;;;4977913;28;20187;-69
2023/06/22 19:06:00;;;;;;;3.53;2.80;;;19.30;99.90;;;;;;4977493;28;20613;-70
2023/06/22 19:08:26;;;;;;;3.00;2.80;;;19.20;99.90;;;;;;5000529;23;20226;-74
2023/06/22 19:10:53;;;;;;;2.50;2.35;;;19.10;99.90;;;;;;4977271;28;20661;-73
2023/06/22 19:13:31;;;;;;;2.80;2.53;;;19.10;99.90;;;;;;4977807;28;20210;-72
2023/06/22 19:16:00;;;;;;;2.85;2.65;;;19.10;99.90;;;;;;4977408;28;20206;-73
2023/06/22 19:18:33;;;;;;;3.03;2.90;;;19.10;99.90;;;;;;4977332;28;20601;-74
2023/06/22 19:21:03;;;;;;;2.28;2.17;;;19.10;99.90;;;;;;4977352;28;20242;-75
2023/06/22 19:23:31;;;;;;;3.03;2.83;;;19.00;99.90;;;;;;4977239;28;20210;-74
2023/06/22 19:25:59;;;;;;;3.28;2.53;;;18.90;99.90;;;;;;4976931;28;20301;-75
2023/06/22 19:28:27;;;;;;;3.00;2.80;;;18.80;99.90;;;;;;4977257;28;20295;-75
2023/06/22 19:30:55;;;;;;;3.30;2.83;;;18.70;99.90;;;;;;4977125;28;20291;-75
2023/06/22 19:33:25;;;;;;;2.40;2.25;;;18.60;99.90;;;;;;4977234;28;20199;-76
2023/06/22 19:35:52;;;;;;;2.40;2.22;;;18.50;99.90;;;;;;4978234;28;20202;-76
2023/06/22 19:38:21;;;;;;;1.63;1.52;;;18.40;99.90;;;;;;4978332;28;20637;-77
2023/06/22 19:40:47;;;;;;;2.95;2.10;;;18.30;99.90;;;;;;4977785;28;20225;-76
2023/06/22 19:43:15;;;;;;;2.00;1.83;;;18.30;99.90;;;;;;4977473;28;20206;-77
2023/06/22 19:45:42;;;;;;;1.90;1.80;;;18.30;99.90;;;;;;4977998;28;20245;-77
2023/06/22 19:48:10;;;;;;;1.50;1.50;;;18.30;99.90;;;;;;4978324;28;20206;-75
2023/06/22 19:50:39;;;;;;;1.35;1.35;;;18.30;99.90;;;;;;4978270;28;20215;-76
2023/06/22 19:53:09;;;;;;;1.77;1.70;;;18.30;99.90;;;;;;4977949;28;20253;-77
2023/06/22 19:55:40;;;;;;;1.70;1.60;;;18.30;99.90;;;;;;4978049;28;20191;-75
2023/06/22 19:58:07;;;;;;;2.08;1.83;;;18.40;99.90;;;;;;4977872;28;20702;-76
2023/06/22 20:00:35;;;;;;;1.60;1.50;;;18.40;99.90;;;;;;4978049;28;20195;-76
2023/06/22 20:03:01;;;;;;;1.58;1.52;;;18.40;99.90;;;;;;4978173;28;20246;-77
2023/06/22 20:05:28;;;;;;;1.48;1.48;;;18.30;99.90;;;;;;4978966;28;20231;-76
2023/06/22 20:07:55;;;;;;;1.67;1.67;;;18.30;99.90;;;;;;4978680;28;20222;-76
2023/06/22 20:10:24;;;;;;;1.73;1.63;;;18.30;99.90;;;;;;4978445;28;20215;-77
2023/06/22 20:12:53;;;;;;;1.55;1.45;;;18.20;99.90;;;;;;4978087;28;20637;-76
2023/06/22 20:15:21;;;;;;;1.33;1.33;;;18.10;99.90;;;;;;4977481;28;20202;-76
2023/06/22 20:17:56;;;;;;;1.63;1.17;;;18.00;99.90;;;;;;4978077;28;20213;-76
2023/06/22 20:20:23;;;;;;;1.30;1.30;;;18.00;99.90;;;;;;4978106;28;20231;-76
2023/06/22 20:22:50;;;;;;;1.30;1.30;;;18.00;99.90;;;;;;4977495;28;20206;-76
2023/06/22 20:25:21;;;;;;;1.52;1.42;;;17.90;99.90;;;;;;4977818;28;20205;-77
2023/06/22 20:27:48;;;;;;;1.50;1.50;;;17.80;99.90;;;;;;4977909;28;20207;-76
2023/06/22 20:30:18;;;;;;;1.20;1.20;;;17.80;99.90;;;;;;4977092;28;20215;-76
2023/06/22 20:32:48;;;;;;;1.50;1.40;;;17.70;99.90;;;;;;4976842;28;20205;-76
2023/06/22 20:35:16;;;;;;;1.40;1.40;;;17.60;99.90;;;;;;4976179;28;20222;-75
2023/06/22 20:37:42;;;;;;;1.45;1.45;;;17.50;99.90;;;;;;4975901;28;20214;-76
2023/06/22 20:40:10;;;;;;;1.45;1.38;;;17.40;99.90;;;;;;4975999;28;20219;-75
2023/06/22 20:42:37;;;;;;;1.58;1.48;;;17.30;99.90;;;;;;4976595;28;20199;-75
2023/06/22 20:45:04;;;;;;;1.38;1.30;;;17.20;99.90;;;;;;4976072;28;20241;-74
2023/06/22 20:47:32;;;;;;;1.17;1.17;;;17.20;99.90;;;;;;4975415;28;20667;-74
2023/06/22 20:50:00;;;;;;;1.55;1.48;;;17.10;99.90;;;;;;4975835;28;20218;-74
2023/06/22 20:52:26;;;;;;;2.38;1.63;;;17.10;99.90;;;;;;4975963;28;20283;-74
2023/06/22 20:54:53;;;;;;;1.92;1.83;;;17.10;99.90;;;;;;4975583;28;20602;-73
2023/06/22 20:57:20;;;;;;;1.73;1.70;;;17.00;99.90;;;;;;4975662;28;20266;-73
2023/06/22 20:59:47;;;;;;;1.80;1.70;;;17.00;99.90;;;;;;4975276;28;20230;-73
2023/06/22 21:02:15;;;;;;;1.42;1.33;;;17.00;99.90;;;;;;4975293;28;20696;-74
2023/06/22 21:04:43;;;;;;;1.50;1.40;;;17.00;99.90;;;;;;4975576;28;20203;-76
2023/06/22 21:07:10;;;;;;;1.63;1.63;;;17.10;99.90;;;;;;4975599;28;20249;-75
2023/06/22 21:09:37;;;;;;;1.85;1.40;;;17.10;99.90;;;;;;4975273;28;20262;-74
2023/06/22 21:12:04;;;;;;;1.63;1.50;;;17.10;99.90;;;;;;4975113;28;20678;-75
2023/06/22 21:14:31;;;;;;;2.25;1.42;;;17.20;99.90;;;;;;4975591;28;20195;-75
2023/06/22 21:16:58;;;;;;;1.40;1.40;;;17.20;99.90;;;;;;4975046;28;20690;-75
2023/06/22 21:19:25;;;;;;;1.23;1.17;;;17.20;99.90;;;;;;4975201;28;20234;-75
2023/06/22 21:21:53;;;;;;;1.40;1.40;;;17.20;99.90;;;;;;4975036;28;20670;-75
2023/06/22 21:24:19;;;;;;;1.10;1.10;;;17.20;99.90;;;;;;4974906;28;20678;-75
2023/06/22 21:26:46;;;;;;;1.60;1.60;;;17.30;99.90;;;;;;4975166;28;20203;-75
2023/06/22 21:29:13;;;;;;;1.27;1.27;;;17.30;99.90;;;;;;4974868;28;20632;-75
2023/06/22 21:31:39;;;;;;;1.40;1.40;;;17.30;99.90;;;;;;4975062;28;20230;-74
2023/06/22 21:34:06;;;;;;;1.23;1.23;;;17.30;99.90;;;;;;4974755;28;20210;-74
2023/06/22 21:36:33;;;;;;;1.35;1.35;;;17.30;99.90;;;;;;4974775;28;20693;-75
2023/06/22 21:39:02;;;;;;;1.45;1.45;;;17.40;99.90;;;;;;4974857;28;20230;-75
2023/06/22 21:41:29;;;;;;;1.58;1.48;;;17.40;99.90;;;;;;4974699;28;20705;-75
2023/06/22 21:43:55;;;;;;;1.50;1.50;;;17.40;99.90;;;;;;4975169;28;20206;-75
2023/06/22 21:46:22;;;;;;;1.25;1.25;;;17.40;99.90;;;;;;4975049;28;20209;-74
2023/06/22 21:48:49;;;;;;;1.35;1.33;;;17.50;99.90;;;;;;4980475;28;20222;-74
2023/06/22 21:51:16;;;;;;;1.40;1.40;;;17.50;99.90;;;;;;4981097;28;20671;-74
